createdAt,value
2018-02-25T00:00:03.632Z,3.50
2018-02-25T00:00:41.783Z,3.90
2018-02-25T00:01:17.011Z,4.00
2018-02-25T00:01:52.125Z,3.80
2018-02-25T00:02:27.783Z,3.80
2018-02-25T00:03:03.893Z,3.90
2018-02-25T00:03:39.238Z,3.80
2018-02-25T00:04:14.749Z,3.50
2018-02-25T00:04:55.761Z,3.50
2018-02-25T00:05:30.783Z,3.60
2018-02-25T00:06:05.871Z,4.10
2018-02-25T00:06:41.397Z,4.00
2018-02-25T00:07:16.611Z,3.60
2018-02-25T00:07:51.939Z,4.40
2018-02-25T00:08:27.174Z,4.40
2018-02-25T00:09:02.100Z,4.00
2018-02-25T00:09:37.518Z,3.60
2018-02-25T00:10:12.807Z,3.40
2018-02-25T00:10:51.056Z,3.70
2018-02-25T00:11:26.972Z,4.70
2018-02-25T00:12:02.474Z,4.50
2018-02-25T00:12:37.916Z,4.00
2018-02-25T00:13:13.342Z,4.10
2018-02-25T00:13:48.681Z,3.80
2018-02-25T00:14:24.322Z,3.80
2018-02-25T00:14:59.606Z,3.90
2018-02-25T00:15:35.017Z,4.00
2018-02-25T00:16:10.344Z,3.80
2018-02-25T00:16:46.561Z,3.70
2018-02-25T00:17:21.977Z,4.00
2018-02-25T00:17:57.198Z,4.20
2018-02-25T00:18:32.563Z,4.00
2018-02-25T00:19:07.898Z,3.50
2018-02-25T00:19:43.059Z,3.50
2018-02-25T00:20:18.589Z,3.70
2018-02-25T00:20:53.947Z,3.80
2018-02-25T00:21:29.505Z,3.80
2018-02-25T00:22:04.811Z,3.90
2018-02-25T00:22:40.265Z,3.80
2018-02-25T00:23:15.597Z,4.00
2018-02-25T00:23:50.932Z,3.80
2018-02-25T00:24:26.376Z,3.70
2018-02-25T00:25:01.622Z,3.90
2018-02-25T00:25:39.338Z,4.00
2018-02-25T00:26:14.455Z,3.80
2018-02-25T00:26:49.867Z,3.60
2018-02-25T00:27:25.415Z,3.20
2018-02-25T00:28:00.608Z,3.60
2018-02-25T00:28:35.929Z,4.20
2018-02-25T00:29:11.138Z,4.30
2018-02-25T00:29:46.876Z,4.30
2018-02-25T00:30:22.379Z,4.30
2018-02-25T00:30:58.371Z,4.00
2018-02-25T00:31:33.693Z,3.90
2018-02-25T00:32:09.105Z,4.00
2018-02-25T00:32:44.653Z,4.50
2018-02-25T00:33:19.823Z,4.00
2018-02-25T00:33:55.227Z,3.90
2018-02-25T00:34:30.571Z,4.20
2018-02-25T00:35:05.970Z,4.20
2018-02-25T00:35:45.938Z,3.90
2018-02-25T00:36:21.144Z,4.30
2018-02-25T00:36:56.453Z,3.90
2018-02-25T00:37:31.910Z,3.60
2018-02-25T00:38:07.017Z,4.20
2018-02-25T00:38:43.294Z,3.80
2018-02-25T00:39:18.525Z,3.70
2018-02-25T00:39:54.151Z,4.20
2018-02-25T00:40:29.803Z,4.10
2018-02-25T00:41:05.446Z,4.20
2018-02-25T00:41:40.611Z,4.10
2018-02-25T00:42:16.009Z,4.00
2018-02-25T00:42:51.409Z,4.10
2018-02-25T00:43:26.913Z,4.00
2018-02-25T00:44:01.949Z,3.50
2018-02-25T00:44:37.380Z,3.60
2018-02-25T00:45:12.694Z,3.70
2018-02-25T00:45:48.213Z,4.10
2018-02-25T00:46:23.976Z,3.80
2018-02-25T00:46:59.407Z,4.10
2018-02-25T00:47:34.768Z,4.00
2018-02-25T00:48:10.363Z,3.90
2018-02-25T00:48:45.680Z,3.90
2018-02-25T00:49:21.103Z,3.80
2018-02-25T00:49:56.409Z,3.80
2018-02-25T00:50:32.163Z,3.70
2018-02-25T00:51:07.291Z,4.20
2018-02-25T00:51:42.736Z,4.20
2018-02-25T00:52:18.251Z,4.00
2018-02-25T00:52:53.560Z,3.70
2018-02-25T00:53:28.926Z,4.10
2018-02-25T00:54:04.255Z,4.00
2018-02-25T00:54:39.573Z,3.80
2018-02-25T00:55:14.772Z,4.20
2018-02-25T00:55:50.718Z,4.10
2018-02-25T00:56:26.023Z,4.00
2018-02-25T00:57:01.241Z,4.30
2018-02-25T00:57:36.776Z,4.10
2018-02-25T00:58:11.788Z,3.90
2018-02-25T00:58:47.203Z,4.40
2018-02-25T00:59:22.419Z,4.30
2018-02-25T00:59:57.726Z,4.40
2018-02-25T01:00:33.092Z,4.20
2018-02-25T01:01:08.805Z,4.00
2018-02-25T01:01:44.167Z,3.80
2018-02-25T01:02:19.517Z,3.70
2018-02-25T01:02:54.981Z,3.80
2018-02-25T01:03:30.645Z,4.20
2018-02-25T01:04:05.854Z,4.10
2018-02-25T01:04:41.195Z,3.70
2018-02-25T01:05:16.305Z,4.10
2018-02-25T01:05:51.530Z,3.90
2018-02-25T01:06:27.168Z,4.30
2018-02-25T01:07:02.665Z,4.80
2018-02-25T01:07:38.139Z,4.10
2018-02-25T01:08:13.684Z,3.90
2018-02-25T01:08:49.129Z,3.90
2018-02-25T01:09:24.681Z,3.90
2018-02-25T01:10:00.011Z,4.00
2018-02-25T01:10:35.348Z,4.10
2018-02-25T01:11:10.546Z,4.20
2018-02-25T01:11:45.975Z,4.00
2018-02-25T01:12:21.218Z,3.70
2018-02-25T01:12:56.580Z,4.00
2018-02-25T01:13:32.116Z,4.30
2018-02-25T01:14:07.715Z,3.90
2018-02-25T01:14:42.738Z,3.90
2018-02-25T01:15:18.198Z,3.80
2018-02-25T01:15:55.026Z,4.00
2018-02-25T01:16:30.277Z,4.00
2018-02-25T01:17:05.479Z,4.50
2018-02-25T01:17:41.123Z,3.90
2018-02-25T01:18:16.450Z,4.10
2018-02-25T01:18:51.908Z,4.20
2018-02-25T01:19:27.325Z,4.30
2018-02-25T01:20:02.632Z,4.10
2018-02-25T01:20:38.584Z,3.70
2018-02-25T01:21:14.009Z,3.70
2018-02-25T01:21:49.364Z,3.70
2018-02-25T01:22:24.794Z,4.00
2018-02-25T01:23:00.209Z,4.30
2018-02-25T01:23:35.776Z,4.10
2018-02-25T01:24:10.999Z,4.20
2018-02-25T01:24:46.914Z,4.10
2018-02-25T01:25:22.445Z,4.00
2018-02-25T01:25:58.079Z,3.90
2018-02-25T01:26:33.530Z,4.00
2018-02-25T01:27:09.045Z,4.10
2018-02-25T01:27:44.489Z,4.00
2018-02-25T01:28:20.250Z,4.00
2018-02-25T01:28:56.340Z,3.90
2018-02-25T01:29:31.656Z,3.70
2018-02-25T01:30:06.978Z,3.70
2018-02-25T01:30:45.144Z,4.00
2018-02-25T01:31:20.673Z,4.30
2018-02-25T01:31:55.958Z,4.30
2018-02-25T01:32:31.800Z,4.10
2018-02-25T01:33:07.014Z,4.50
2018-02-25T01:33:42.660Z,4.00
2018-02-25T01:34:18.699Z,4.00
2018-02-25T01:34:53.850Z,4.20
2018-02-25T01:35:29.177Z,3.90
2018-02-25T01:36:04.517Z,3.90
2018-02-25T01:36:40.463Z,3.90
2018-02-25T01:37:16.107Z,3.80
2018-02-25T01:37:51.328Z,4.00
2018-02-25T01:38:26.792Z,4.10
2018-02-25T01:39:01.771Z,3.80
2018-02-25T01:39:37.552Z,4.30
2018-02-25T01:40:12.777Z,3.90
2018-02-25T01:40:48.412Z,3.70
2018-02-25T01:41:24.058Z,3.60
2018-02-25T01:41:59.450Z,4.10
2018-02-25T01:42:35.186Z,4.30
2018-02-25T01:43:10.404Z,4.50
2018-02-25T01:43:47.232Z,4.60
2018-02-25T01:44:22.487Z,3.80
2018-02-25T01:44:58.231Z,4.10
2018-02-25T01:45:33.676Z,3.80
2018-02-25T01:46:09.169Z,3.90
2018-02-25T01:46:44.390Z,3.90
2018-02-25T01:47:19.940Z,3.60
2018-02-25T01:47:55.711Z,4.00
2018-02-25T01:48:31.208Z,4.40
2018-02-25T01:49:06.557Z,4.10
2018-02-25T01:49:43.218Z,4.00
2018-02-25T01:50:18.473Z,4.20
2018-02-25T01:50:57.115Z,4.30
2018-02-25T01:51:32.187Z,4.00
2018-02-25T01:52:07.503Z,3.60
2018-02-25T01:52:42.658Z,3.80
2018-02-25T01:53:17.892Z,4.00
2018-02-25T01:53:53.153Z,3.70
2018-02-25T01:54:28.633Z,4.00
2018-02-25T01:55:04.455Z,4.00
2018-02-25T01:55:40.409Z,3.90
2018-02-25T01:56:15.737Z,4.10
2018-02-25T01:56:51.006Z,4.00
2018-02-25T01:57:26.530Z,3.70
2018-02-25T01:58:02.125Z,3.80
2018-02-25T01:58:38.062Z,4.00
2018-02-25T01:59:13.377Z,4.10
2018-02-25T01:59:48.746Z,4.30
2018-02-25T02:00:24.112Z,4.20
2018-02-25T02:01:00.322Z,3.80
2018-02-25T02:01:35.837Z,4.30
2018-02-25T02:02:11.033Z,4.00
2018-02-25T02:02:46.475Z,3.70
2018-02-25T02:03:21.754Z,3.50
2018-02-25T02:03:57.051Z,3.30
2018-02-25T02:04:32.424Z,3.60
2018-02-25T02:05:08.052Z,3.90
2018-02-25T02:05:43.231Z,4.10
2018-02-25T02:06:18.863Z,4.40
2018-02-25T02:06:54.284Z,4.30
2018-02-25T02:07:29.529Z,4.10
2018-02-25T02:08:04.743Z,4.20
2018-02-25T02:08:40.328Z,4.40
2018-02-25T02:09:15.746Z,3.90
2018-02-25T02:09:54.291Z,4.10
2018-02-25T02:10:29.454Z,3.80
2018-02-25T02:11:04.972Z,3.80
2018-02-25T02:11:41.111Z,4.40
2018-02-25T02:12:16.744Z,4.30
2018-02-25T02:12:52.173Z,3.70
2018-02-25T02:13:27.513Z,4.00
2018-02-25T02:14:02.941Z,4.20
2018-02-25T02:14:38.587Z,3.80
2018-02-25T02:15:13.856Z,3.90
2018-02-25T02:15:52.906Z,4.00
2018-02-25T02:16:28.324Z,4.20
2018-02-25T02:17:03.862Z,4.30
2018-02-25T02:17:39.787Z,3.90
2018-02-25T02:18:15.205Z,4.20
2018-02-25T02:18:50.535Z,4.20
2018-02-25T02:19:26.079Z,4.60
2018-02-25T02:20:01.589Z,4.40
2018-02-25T02:20:37.830Z,3.90
2018-02-25T02:21:13.350Z,3.90
2018-02-25T02:21:48.694Z,4.20
2018-02-25T02:22:23.926Z,4.20
2018-02-25T02:22:59.420Z,3.70
2018-02-25T02:23:34.854Z,3.60
2018-02-25T02:24:10.379Z,4.20
2018-02-25T02:24:45.808Z,4.40
2018-02-25T02:25:21.560Z,3.70
2018-02-25T02:25:58.188Z,4.10
2018-02-25T02:26:33.484Z,4.10
2018-02-25T02:27:08.581Z,4.00
2018-02-25T02:27:44.212Z,4.20
2018-02-25T02:28:19.445Z,4.10
2018-02-25T02:28:54.767Z,4.10
2018-02-25T02:29:30.004Z,3.80
2018-02-25T02:30:05.148Z,4.10
2018-02-25T02:30:43.705Z,4.30
2018-02-25T02:31:19.330Z,4.00
2018-02-25T02:31:54.648Z,3.70
2018-02-25T02:32:30.187Z,4.10
2018-02-25T02:33:05.285Z,4.30
2018-02-25T02:33:41.438Z,4.60
2018-02-25T02:34:18.941Z,4.40
2018-02-25T02:34:54.257Z,4.60
2018-02-25T02:35:29.772Z,4.70
2018-02-25T02:36:05.339Z,4.10
2018-02-25T02:36:41.317Z,3.90
2018-02-25T02:37:16.844Z,4.00
2018-02-25T02:37:52.498Z,4.00
2018-02-25T02:38:27.744Z,4.50
2018-02-25T02:39:02.842Z,4.60
2018-02-25T02:39:38.485Z,4.40
2018-02-25T02:40:13.708Z,4.30
2018-02-25T02:40:50.607Z,4.20
2018-02-25T02:41:26.048Z,4.30
2018-02-25T02:42:01.555Z,4.20
2018-02-25T02:42:37.089Z,4.30
2018-02-25T02:43:12.514Z,4.20
2018-02-25T02:43:47.647Z,4.20
2018-02-25T02:44:22.881Z,3.60
2018-02-25T02:45:01.203Z,4.20
2018-02-25T02:45:37.827Z,4.30
2018-02-25T02:46:13.255Z,4.50
2018-02-25T02:46:48.689Z,4.60
2018-02-25T02:47:24.051Z,4.00
2018-02-25T02:47:59.402Z,4.20
2018-02-25T02:48:34.754Z,4.30
2018-02-25T02:49:10.451Z,4.50
2018-02-25T02:49:45.979Z,4.30
2018-02-25T02:50:21.353Z,4.30
2018-02-25T02:50:56.650Z,4.10
2018-02-25T02:51:32.568Z,4.40
2018-02-25T02:52:07.946Z,4.50
2018-02-25T02:52:43.813Z,4.50
2018-02-25T02:53:19.440Z,4.80
2018-02-25T02:53:54.756Z,3.90
2018-02-25T02:54:30.080Z,3.90
2018-02-25T02:55:05.600Z,4.10
2018-02-25T02:55:44.160Z,4.40
2018-02-25T02:56:19.506Z,4.10
2018-02-25T02:56:55.041Z,4.00
2018-02-25T02:57:30.477Z,3.60
2018-02-25T02:58:05.692Z,4.20
2018-02-25T02:58:41.240Z,4.80
2018-02-25T02:59:16.340Z,4.20
2018-02-25T02:59:52.172Z,4.00
2018-02-25T03:00:27.898Z,3.90
2018-02-25T03:01:04.037Z,4.20
2018-02-25T03:01:39.814Z,4.20
2018-02-25T03:02:15.342Z,4.40
2018-02-25T03:02:50.783Z,4.60
2018-02-25T03:03:25.989Z,4.10
2018-02-25T03:04:01.389Z,4.20
2018-02-25T03:04:36.877Z,4.20
2018-02-25T03:05:12.290Z,4.80
2018-02-25T03:05:49.528Z,4.60
2018-02-25T03:06:24.790Z,4.40
2018-02-25T03:07:00.077Z,4.60
2018-02-25T03:07:35.753Z,4.50
2018-02-25T03:08:10.935Z,4.10
2018-02-25T03:08:46.469Z,4.00
2018-02-25T03:09:21.910Z,4.10
2018-02-25T03:09:57.328Z,4.30
2018-02-25T03:10:32.746Z,4.20
2018-02-25T03:11:08.087Z,4.30
2018-02-25T03:11:43.420Z,5.10
2018-02-25T03:12:18.901Z,4.50
2018-02-25T03:12:54.229Z,4.10
2018-02-25T03:13:29.689Z,4.70
2018-02-25T03:14:05.241Z,4.20
2018-02-25T03:14:40.989Z,4.10
2018-02-25T03:15:17.202Z,3.80
2018-02-25T03:15:52.826Z,4.00
2018-02-25T03:16:28.072Z,4.30
2018-02-25T03:17:03.377Z,4.00
2018-02-25T03:17:39.057Z,4.10
2018-02-25T03:18:14.269Z,4.40
2018-02-25T03:18:49.717Z,5.10
2018-02-25T03:19:24.976Z,4.40
2018-02-25T03:20:00.190Z,4.50
2018-02-25T03:20:35.730Z,5.20
2018-02-25T03:21:11.233Z,4.80
2018-02-25T03:21:46.588Z,4.00
2018-02-25T03:22:21.913Z,3.90
2018-02-25T03:22:57.242Z,4.60
2018-02-25T03:23:32.567Z,4.30
2018-02-25T03:24:07.999Z,4.30
2018-02-25T03:24:43.437Z,4.60
2018-02-25T03:25:18.742Z,4.30
2018-02-25T03:25:54.359Z,4.30
2018-02-25T03:26:29.604Z,4.30
2018-02-25T03:27:05.107Z,4.50
2018-02-25T03:27:40.953Z,4.40
2018-02-25T03:28:16.049Z,3.90
2018-02-25T03:28:51.579Z,3.90
2018-02-25T03:29:27.019Z,4.50
2018-02-25T03:30:02.213Z,5.20
2018-02-25T03:30:37.941Z,4.70
2018-02-25T03:31:13.427Z,4.60
2018-02-25T03:31:48.476Z,4.20
2018-02-25T03:32:23.829Z,4.20
2018-02-25T03:32:59.126Z,4.50
2018-02-25T03:33:34.547Z,4.50
2018-02-25T03:34:09.950Z,4.80
2018-02-25T03:34:45.341Z,5.10
2018-02-25T03:35:20.775Z,4.70
2018-02-25T03:35:56.318Z,4.20
2018-02-25T03:36:31.660Z,4.30
2018-02-25T03:37:07.171Z,4.80
2018-02-25T03:37:42.718Z,4.70
2018-02-25T03:38:17.937Z,4.70
2018-02-25T03:38:53.187Z,4.60
2018-02-25T03:39:28.493Z,4.20
2018-02-25T03:40:03.925Z,4.50
2018-02-25T03:40:39.873Z,4.70
2018-02-25T03:41:15.291Z,4.80
2018-02-25T03:41:50.636Z,4.80
2018-02-25T03:42:26.067Z,4.30
2018-02-25T03:43:01.492Z,4.90
2018-02-25T03:43:36.714Z,4.90
2018-02-25T03:44:12.156Z,4.60
2018-02-25T03:44:47.408Z,4.60
2018-02-25T03:45:22.647Z,4.40
2018-02-25T03:45:58.135Z,4.40
2018-02-25T03:46:33.212Z,4.40
2018-02-25T03:47:08.392Z,4.40
2018-02-25T03:47:43.844Z,4.80
2018-02-25T03:48:19.198Z,5.30
2018-02-25T03:48:54.414Z,5.00
2018-02-25T03:49:29.676Z,4.80
2018-02-25T03:50:05.345Z,4.60
2018-02-25T03:50:41.901Z,4.30
2018-02-25T03:51:17.213Z,4.50
2018-02-25T03:51:52.257Z,4.40
2018-02-25T03:52:27.764Z,4.40
2018-02-25T03:53:03.163Z,4.70
2018-02-25T03:53:38.290Z,4.10
2018-02-25T03:54:13.495Z,4.40
2018-02-25T03:54:49.074Z,4.90
2018-02-25T03:55:24.409Z,4.70
2018-02-25T03:56:00.235Z,5.10
2018-02-25T03:56:35.610Z,5.00
2018-02-25T03:57:11.200Z,4.50
2018-02-25T03:57:47.705Z,4.70
2018-02-25T03:58:22.936Z,4.80
2018-02-25T03:58:58.141Z,4.60
2018-02-25T03:59:33.344Z,4.30
2018-02-25T04:00:08.976Z,4.80
2018-02-25T04:00:46.820Z,5.10
2018-02-25T04:01:22.320Z,4.60
2018-02-25T04:01:57.759Z,4.50
2018-02-25T04:02:33.094Z,4.70
2018-02-25T04:03:08.473Z,4.40
2018-02-25T04:03:43.806Z,4.90
2018-02-25T04:04:18.924Z,5.20
2018-02-25T04:04:55.725Z,4.90
2018-02-25T04:05:31.664Z,4.50
2018-02-25T04:06:08.777Z,4.40
2018-02-25T04:06:44.617Z,4.50
2018-02-25T04:07:19.889Z,4.80
2018-02-25T04:07:55.525Z,4.60
2018-02-25T04:08:30.957Z,4.70
2018-02-25T04:09:06.347Z,4.90
2018-02-25T04:09:42.786Z,4.70
2018-02-25T04:10:18.066Z,4.80
2018-02-25T04:10:53.918Z,5.60
2018-02-25T04:11:29.170Z,5.40
2018-02-25T04:12:04.405Z,5.00
2018-02-25T04:12:39.456Z,4.50
2018-02-25T04:13:14.442Z,4.20
2018-02-25T04:13:49.895Z,4.50
2018-02-25T04:14:25.422Z,4.70
2018-02-25T04:15:00.620Z,5.30
2018-02-25T04:15:36.358Z,5.40
2018-02-25T04:16:11.849Z,4.70
2018-02-25T04:16:47.299Z,4.30
2018-02-25T04:17:23.625Z,4.50
2018-02-25T04:17:58.829Z,4.60
2018-02-25T04:18:34.358Z,4.40
2018-02-25T04:19:09.645Z,4.90
2018-02-25T04:19:45.067Z,5.40
2018-02-25T04:20:20.311Z,5.30
2018-02-25T04:20:55.808Z,5.40
2018-02-25T04:21:31.468Z,5.50
2018-02-25T04:22:06.834Z,4.90
2018-02-25T04:22:42.458Z,4.90
2018-02-25T04:23:17.968Z,5.10
2018-02-25T04:23:53.284Z,4.90
2018-02-25T04:24:28.434Z,4.80
2018-02-25T04:25:03.623Z,4.70
2018-02-25T04:25:39.762Z,4.40
2018-02-25T04:26:15.080Z,4.80
2018-02-25T04:26:50.486Z,5.10
2018-02-25T04:27:25.737Z,5.00
2018-02-25T04:28:01.243Z,5.10
2018-02-25T04:28:36.720Z,5.00
2018-02-25T04:29:12.051Z,4.90
2018-02-25T04:29:47.069Z,4.70
2018-02-25T04:30:22.526Z,4.50
2018-02-25T04:30:57.945Z,4.90
2018-02-25T04:31:33.392Z,4.50
2018-02-25T04:32:08.823Z,4.90
2018-02-25T04:32:44.259Z,5.10
2018-02-25T04:33:19.431Z,4.70
2018-02-25T04:33:54.359Z,4.90
2018-02-25T04:34:29.861Z,4.70
2018-02-25T04:35:05.391Z,5.00
2018-02-25T04:35:42.228Z,4.80
2018-02-25T04:36:17.844Z,5.10
2018-02-25T04:36:53.559Z,5.70
2018-02-25T04:37:28.738Z,5.40
2018-02-25T04:38:03.989Z,5.60
2018-02-25T04:38:39.392Z,6.90
2018-02-25T04:39:14.722Z,6.50
2018-02-25T04:39:49.973Z,5.40
2018-02-25T04:40:25.289Z,5.70
2018-02-25T04:41:01.914Z,5.40
2018-02-25T04:41:38.540Z,5.10
2018-02-25T04:42:13.970Z,5.30
2018-02-25T04:42:49.206Z,5.40
2018-02-25T04:43:25.032Z,5.00
2018-02-25T04:44:00.421Z,4.70
2018-02-25T04:44:35.663Z,4.90
2018-02-25T04:45:10.871Z,5.20
2018-02-25T04:45:47.608Z,5.50
2018-02-25T04:46:22.974Z,5.70
2018-02-25T04:46:58.308Z,5.50
2018-02-25T04:47:33.658Z,5.20
2018-02-25T04:48:08.943Z,5.70
2018-02-25T04:48:44.469Z,5.80
2018-02-25T04:49:19.712Z,6.00
2018-02-25T04:49:55.306Z,5.60
2018-02-25T04:50:30.868Z,5.90
2018-02-25T04:51:06.310Z,6.00
2018-02-25T04:51:41.480Z,5.60
2018-02-25T04:52:16.705Z,6.80
2018-02-25T04:52:52.224Z,7.50
2018-02-25T04:53:27.347Z,6.20
2018-02-25T04:54:02.822Z,6.90
2018-02-25T04:54:38.438Z,8.30
2018-02-25T04:55:13.834Z,7.20
2018-02-25T04:55:49.162Z,6.40
2018-02-25T04:56:24.285Z,6.30
2018-02-25T04:56:59.781Z,7.50
2018-02-25T04:57:35.244Z,7.60
2018-02-25T04:58:10.530Z,6.80
2018-02-25T04:58:46.063Z,6.30
2018-02-25T04:59:21.400Z,6.30
2018-02-25T04:59:56.898Z,6.10
2018-02-25T05:00:32.411Z,6.30
2018-02-25T05:01:08.581Z,6.40
2018-02-25T05:01:43.599Z,7.20
2018-02-25T05:02:19.104Z,8.30
2018-02-25T05:02:54.667Z,7.40
2018-02-25T05:03:29.716Z,7.50
2018-02-25T05:04:05.626Z,6.70
2018-02-25T05:04:41.249Z,5.60
2018-02-25T05:05:16.554Z,6.10
2018-02-25T05:05:52.126Z,6.10
2018-02-25T05:06:27.754Z,5.50
2018-02-25T05:07:02.879Z,5.50
2018-02-25T05:07:37.930Z,5.90
2018-02-25T05:08:13.573Z,6.00
2018-02-25T05:08:49.086Z,5.40
2018-02-25T05:09:24.301Z,5.70
2018-02-25T05:09:59.680Z,5.80
2018-02-25T05:10:35.219Z,5.60
2018-02-25T05:11:10.655Z,5.60
2018-02-25T05:11:45.987Z,5.60
2018-02-25T05:12:21.321Z,5.60
2018-02-25T05:12:57.547Z,5.30
2018-02-25T05:13:33.110Z,5.20
2018-02-25T05:14:08.512Z,5.30
2018-02-25T05:14:43.822Z,5.40
2018-02-25T05:15:19.444Z,5.60
2018-02-25T05:15:55.475Z,5.40
2018-02-25T05:16:30.709Z,5.00
2018-02-25T05:17:06.093Z,4.60
2018-02-25T05:17:41.555Z,5.40
2018-02-25T05:18:16.977Z,5.40
2018-02-25T05:18:52.308Z,4.90
2018-02-25T05:19:27.672Z,5.40
2018-02-25T05:20:02.898Z,4.70
2018-02-25T05:20:39.127Z,4.80
2018-02-25T05:21:14.505Z,5.30
2018-02-25T05:21:50.144Z,5.20
2018-02-25T05:22:25.778Z,5.50
2018-02-25T05:23:00.997Z,5.50
2018-02-25T05:23:36.281Z,5.30
2018-02-25T05:24:11.610Z,5.50
2018-02-25T05:24:49.417Z,5.60
2018-02-25T05:25:24.843Z,5.40
2018-02-25T05:26:00.249Z,5.30
2018-02-25T05:26:36.082Z,5.30
2018-02-25T05:27:11.369Z,5.70
2018-02-25T05:27:47.491Z,5.70
2018-02-25T05:28:22.796Z,5.30
2018-02-25T05:28:58.177Z,5.30
2018-02-25T05:29:33.383Z,5.10
2018-02-25T05:30:08.565Z,4.70
2018-02-25T05:30:45.205Z,4.70
2018-02-25T05:31:20.551Z,5.20
2018-02-25T05:31:55.673Z,5.70
2018-02-25T05:32:31.002Z,5.50
2018-02-25T05:33:06.340Z,5.20
2018-02-25T05:33:42.164Z,5.10
2018-02-25T05:34:17.872Z,5.00
2018-02-25T05:34:53.141Z,5.10
2018-02-25T05:35:28.560Z,5.20
2018-02-25T05:36:03.772Z,5.20
2018-02-25T05:36:39.395Z,5.30
2018-02-25T05:37:15.074Z,5.30
2018-02-25T05:37:50.524Z,5.30
2018-02-25T05:38:25.768Z,5.50
2018-02-25T05:39:01.245Z,5.50
2018-02-25T05:39:36.685Z,5.00
2018-02-25T05:40:12.095Z,4.90
2018-02-25T05:40:49.020Z,5.00
2018-02-25T05:41:24.660Z,5.30
2018-02-25T05:42:00.367Z,5.20
2018-02-25T05:42:35.897Z,5.40
2018-02-25T05:43:11.014Z,5.10
2018-02-25T05:43:46.323Z,5.20
2018-02-25T05:44:21.674Z,5.00
2018-02-25T05:44:57.068Z,4.90
2018-02-25T05:45:32.367Z,4.90
2018-02-25T05:46:08.067Z,5.30
2018-02-25T05:46:44.682Z,5.40
2018-02-25T05:47:20.410Z,5.00
2018-02-25T05:47:55.720Z,5.00
2018-02-25T05:48:30.978Z,4.70
2018-02-25T05:49:06.473Z,5.70
2018-02-25T05:49:43.088Z,5.30
2018-02-25T05:50:18.395Z,4.80
2018-02-25T05:50:54.827Z,4.80
2018-02-25T05:51:30.018Z,5.00
2018-02-25T05:52:05.714Z,4.90
2018-02-25T05:52:41.328Z,5.20
2018-02-25T05:53:16.646Z,5.00
2018-02-25T05:53:52.185Z,4.80
2018-02-25T05:54:27.494Z,5.30
2018-02-25T05:55:02.564Z,5.40
2018-02-25T05:55:38.312Z,5.30
2018-02-25T05:56:13.395Z,5.60
2018-02-25T05:56:49.511Z,5.40
2018-02-25T05:57:25.043Z,5.10
2018-02-25T05:58:00.229Z,4.90
2018-02-25T05:58:35.380Z,4.80
2018-02-25T05:59:10.691Z,5.30
2018-02-25T05:59:46.216Z,5.20
2018-02-25T06:00:21.460Z,4.70
2018-02-25T06:00:58.357Z,4.60
2018-02-25T06:01:33.658Z,4.90
2018-02-25T06:02:09.038Z,5.10
2018-02-25T06:02:44.684Z,5.20
2018-02-25T06:03:20.008Z,5.00
2018-02-25T06:03:55.400Z,5.30
2018-02-25T06:04:30.788Z,5.40
2018-02-25T06:05:06.575Z,5.00
2018-02-25T06:05:45.210Z,5.40
2018-02-25T06:06:20.671Z,5.30
2018-02-25T06:06:56.120Z,5.10
2018-02-25T06:07:31.528Z,5.40
2018-02-25T06:08:07.143Z,5.10
2018-02-25T06:08:42.420Z,5.30
2018-02-25T06:09:20.859Z,5.20
2018-02-25T06:09:56.463Z,5.40
2018-02-25T06:10:31.920Z,5.10
2018-02-25T06:11:07.041Z,5.70
2018-02-25T06:11:46.675Z,5.20
2018-02-25T06:12:22.231Z,4.80
2018-02-25T06:12:57.529Z,4.30
2018-02-25T06:13:32.765Z,4.80
2018-02-25T06:14:08.395Z,5.10
2018-02-25T06:14:44.738Z,5.30
2018-02-25T06:15:19.984Z,5.70
2018-02-25T06:15:56.796Z,5.10
2018-02-25T06:16:32.599Z,4.50
2018-02-25T06:17:08.025Z,4.90
2018-02-25T06:17:43.438Z,4.60
2018-02-25T06:18:19.064Z,4.60
2018-02-25T06:18:54.336Z,4.80
2018-02-25T06:19:29.766Z,4.90
2018-02-25T06:20:05.470Z,5.00
2018-02-25T06:20:42.111Z,5.20
2018-02-25T06:21:17.501Z,5.60
2018-02-25T06:21:52.944Z,5.40
2018-02-25T06:22:28.211Z,5.00
2018-02-25T06:23:03.596Z,5.10
2018-02-25T06:23:39.226Z,4.90
2018-02-25T06:24:14.665Z,4.90
2018-02-25T06:24:49.935Z,5.00
2018-02-25T06:25:26.487Z,5.30
2018-02-25T06:26:01.804Z,5.80
2018-02-25T06:26:37.412Z,5.60
2018-02-25T06:27:12.903Z,4.90
2018-02-25T06:27:50.269Z,5.30
2018-02-25T06:28:26.220Z,5.10
2018-02-25T06:29:01.842Z,4.60
2018-02-25T06:29:37.226Z,4.60
2018-02-25T06:30:12.420Z,4.80
2018-02-25T06:30:48.474Z,4.60
2018-02-25T06:31:23.807Z,4.60
2018-02-25T06:31:59.212Z,4.60
2018-02-25T06:32:34.684Z,5.00
2018-02-25T06:33:09.801Z,4.70
2018-02-25T06:33:45.943Z,5.00
2018-02-25T06:34:21.620Z,5.30
2018-02-25T06:34:56.839Z,4.90
2018-02-25T06:35:32.353Z,4.80
2018-02-25T06:36:07.562Z,5.20
2018-02-25T06:36:43.774Z,5.10
2018-02-25T06:37:19.281Z,5.20
2018-02-25T06:37:54.490Z,5.10
2018-02-25T06:38:29.827Z,5.30
2018-02-25T06:39:05.117Z,5.30
2018-02-25T06:39:40.352Z,5.10
2018-02-25T06:40:15.419Z,5.50
2018-02-25T06:40:50.692Z,4.80
2018-02-25T06:41:26.328Z,4.70
2018-02-25T06:42:01.631Z,5.10
2018-02-25T06:42:37.247Z,5.30
2018-02-25T06:43:12.560Z,5.10
2018-02-25T06:43:51.003Z,5.10
2018-02-25T06:44:28.636Z,5.40
2018-02-25T06:45:04.210Z,5.40
2018-02-25T06:45:44.242Z,5.20
2018-02-25T06:46:19.571Z,5.40
2018-02-25T06:46:54.968Z,5.50
2018-02-25T06:47:30.383Z,5.20
2018-02-25T06:48:05.587Z,5.00
2018-02-25T06:48:40.758Z,5.10
2018-02-25T06:49:16.058Z,5.40
2018-02-25T06:49:51.603Z,5.40
2018-02-25T06:50:26.927Z,5.00
2018-02-25T06:51:02.309Z,5.00
2018-02-25T06:51:38.099Z,4.90
2018-02-25T06:52:13.500Z,4.90
2018-02-25T06:52:48.621Z,5.00
2018-02-25T06:53:30.627Z,5.20
2018-02-25T06:54:08.039Z,5.60
2018-02-25T06:54:43.146Z,5.70
2018-02-25T06:55:18.555Z,5.30
2018-02-25T06:55:53.873Z,5.10
2018-02-25T06:56:29.175Z,5.60
2018-02-25T06:57:04.365Z,5.50
2018-02-25T06:57:39.982Z,4.90
2018-02-25T06:58:15.254Z,5.00
2018-02-25T06:58:50.696Z,4.30
2018-02-25T06:59:26.120Z,4.60
2018-02-25T07:00:01.292Z,4.50
2018-02-25T07:00:38.536Z,4.90
2018-02-25T07:01:14.614Z,4.80
2018-02-25T07:01:49.937Z,4.40
2018-02-25T07:02:25.258Z,4.50
2018-02-25T07:03:00.439Z,4.90
2018-02-25T07:03:35.657Z,5.00
2018-02-25T07:04:10.777Z,5.10
2018-02-25T07:04:47.482Z,5.10
2018-02-25T07:05:22.703Z,5.10
2018-02-25T07:05:58.597Z,5.00
2018-02-25T07:06:34.037Z,4.60
2018-02-25T07:07:09.542Z,5.30
2018-02-25T07:07:44.986Z,5.20
2018-02-25T07:08:20.506Z,4.70
2018-02-25T07:08:55.634Z,4.90
2018-02-25T07:09:30.853Z,4.90
2018-02-25T07:10:06.155Z,4.60
2018-02-25T07:10:42.792Z,4.90
2018-02-25T07:11:17.908Z,4.60
2018-02-25T07:11:53.244Z,4.80
2018-02-25T07:12:28.684Z,5.10
2018-02-25T07:13:04.074Z,4.70
2018-02-25T07:13:39.424Z,4.90
2018-02-25T07:14:14.955Z,4.90
2018-02-25T07:14:50.369Z,5.10
2018-02-25T07:15:25.614Z,5.20
2018-02-25T07:16:00.808Z,4.60
2018-02-25T07:16:36.246Z,4.80
2018-02-25T07:17:11.534Z,5.30
2018-02-25T07:17:47.063Z,5.40
2018-02-25T07:18:22.532Z,5.10
2018-02-25T07:18:57.742Z,4.80
2018-02-25T07:19:33.327Z,5.00
2018-02-25T07:20:09.439Z,4.70
2018-02-25T07:20:45.704Z,4.90
2018-02-25T07:21:21.039Z,5.00
2018-02-25T07:21:56.316Z,5.30
2018-02-25T07:22:31.652Z,5.20
2018-02-25T07:23:06.948Z,4.90
2018-02-25T07:23:42.605Z,4.90
2018-02-25T07:24:18.287Z,5.00
2018-02-25T07:24:55.200Z,5.20
2018-02-25T07:25:33.533Z,4.90
2018-02-25T07:26:10.252Z,5.00
2018-02-25T07:26:45.948Z,5.60
2018-02-25T07:27:21.154Z,5.70
2018-02-25T07:27:56.482Z,4.70
2018-02-25T07:28:33.066Z,4.50
2018-02-25T07:29:08.572Z,4.30
2018-02-25T07:29:45.045Z,4.70
2018-02-25T07:30:20.169Z,4.80
2018-02-25T07:30:59.713Z,4.80
2018-02-25T07:31:35.051Z,5.50
2018-02-25T07:32:10.448Z,5.80
2018-02-25T07:32:45.773Z,5.50
2018-02-25T07:33:23.303Z,5.20
2018-02-25T07:33:58.729Z,5.20
2018-02-25T07:34:34.200Z,5.10
2018-02-25T07:35:09.504Z,5.40
2018-02-25T07:35:48.438Z,4.80
2018-02-25T07:36:26.069Z,5.00
2018-02-25T07:37:03.586Z,5.50
2018-02-25T07:37:39.215Z,5.70
2018-02-25T07:38:14.643Z,5.60
2018-02-25T07:38:51.318Z,5.20
2018-02-25T07:39:26.569Z,4.80
2018-02-25T07:40:02.160Z,5.40
2018-02-25T07:40:38.110Z,5.80
2018-02-25T07:41:16.711Z,5.50
2018-02-25T07:41:54.924Z,5.10
2018-02-25T07:42:30.478Z,4.70
2018-02-25T07:43:06.026Z,4.50
2018-02-25T07:43:43.185Z,4.80
2018-02-25T07:44:18.294Z,5.10
2018-02-25T07:44:53.848Z,5.10
2018-02-25T07:45:32.286Z,5.20
2018-02-25T07:46:07.483Z,5.30
2018-02-25T07:46:45.393Z,5.20
2018-02-25T07:47:22.794Z,4.80
2018-02-25T07:47:58.195Z,4.60
2018-02-25T07:48:33.826Z,4.80
2018-02-25T07:49:09.012Z,4.80
2018-02-25T07:49:44.460Z,4.90
2018-02-25T07:50:20.209Z,5.50
2018-02-25T07:50:55.617Z,5.00
2018-02-25T07:51:30.930Z,4.80
2018-02-25T07:52:06.330Z,4.70
2018-02-25T07:52:41.743Z,4.80
2018-02-25T07:53:17.030Z,4.80
2018-02-25T07:53:52.384Z,4.70